Flugplatz Fulda-Jossa (EDGF)

Hier findest Du alle Informationen zum Flugplatz Fulda-Jossa (EDGF).

Informationen für Piloten zum Flugplatz Fulda-Jossa

Hier findest Du alle relevanten Informationen, die Du als Pilot benötigst, um Fulda-Jossa anzufliegen.

Flugplatz: Fulda-Jossa ICAO-Code: EDGF
Frequenz Turm: 118.985 Mhz GAFOR Gebiet: 43
Frequenz Ground: 118.985 Mhz Mogas: nein
Platzrunde: S 2500 ft Landegebühr: -
Platzhöhe: 1.558 ft Sunrise: 03:25 Uhr UTC
Pisten: 08/26 - 588 m x 30 m, GRAS Sunset: 19:31 Uhr UTC

Mitglieder, die in Fulda-Jossa fliegen

Flugwetter am Flugplatz Fulda-Jossa

Die METAR Information stammen aus EDDF (79.08 km entfernt).

METAR Code:
2024/06/13 12:20
EDDF 131220Z AUTO VRB07KT CAVOK 19/04 Q1018 NOSIG

Flugschulen am Flugplatz Fulda-Jossa

Am Flugplatz Fulda-Jossa gibt es leider keine Flugschule.

Benachbarte Flugplätze und Flugschulen

Es gibt 12 weitere Flugplätze in einem Umkreis von 50 km um den Flugplatz Fulda-Jossa.

Jetzt anmelden

Passwort vergessen

Umfrage Archiv

Wie häufig haltet Ihr die Halbkreisflugregel ein?

Eher häufig!
36.4 %
Immer!
30.2 %
Hin und wieder!
17.1 %
Nie!
9.5 %
Eher selten!
6.9 %
Stimmen: 275 | Diskussion
Anzeige: Roland Aircraft
Statistik Alle Mitglieder

Aktuell sind 22 Besucher online.

Anzeige: EasyVFR